createdAt,value
2022-12-14T00:00:46.281Z,-11.85
2022-12-14T00:01:48.937Z,-11.83
2022-12-14T00:02:46.439Z,-11.84
2022-12-14T00:03:46.177Z,-11.84
2022-12-14T00:04:46.037Z,-11.84
2022-12-14T00:05:45.998Z,-11.84
2022-12-14T00:06:45.921Z,-11.85
2022-12-14T00:07:45.872Z,-11.83
2022-12-14T00:10:39.632Z,-11.84
2022-12-14T00:11:39.616Z,-11.84
2022-12-14T00:12:39.541Z,-11.83
2022-12-14T00:13:39.635Z,-11.84
2022-12-14T00:14:39.390Z,-11.83
2022-12-14T00:15:39.391Z,-11.85
2022-12-14T00:16:39.262Z,-11.84
2022-12-14T00:17:39.183Z,-11.84
2022-12-14T00:18:39.098Z,-11.84
2022-12-14T00:19:39.035Z,-11.85
2022-12-14T00:20:38.952Z,-11.88
2022-12-14T00:21:38.918Z,-11.86
2022-12-14T00:22:38.972Z,-11.89
2022-12-14T00:23:39.244Z,-11.89
2022-12-14T00:24:38.857Z,-11.92
2022-12-14T00:25:38.653Z,-11.92
2022-12-14T00:26:38.551Z,-11.94
2022-12-14T00:27:38.506Z,-11.96
2022-12-14T00:28:38.725Z,-11.94
2022-12-14T00:29:38.355Z,-11.94
2022-12-14T00:30:38.259Z,-11.95
2022-12-14T00:31:38.289Z,-11.95
2022-12-14T00:32:38.105Z,-11.95
2022-12-14T00:33:38.074Z,-11.97
2022-12-14T00:34:37.975Z,-11.96
2022-12-14T00:35:37.930Z,-11.97
2022-12-14T00:36:37.811Z,-12.00
2022-12-14T00:37:37.775Z,-11.96
2022-12-14T00:38:37.679Z,-11.93
2022-12-14T00:39:37.624Z,-11.95
2022-12-14T00:40:37.689Z,-11.95
2022-12-14T00:41:37.949Z,-11.96
2022-12-14T00:42:37.389Z,-11.97
2022-12-14T00:43:37.355Z,-11.94
2022-12-14T00:44:37.258Z,-11.94
2022-12-14T00:45:37.210Z,-11.96
2022-12-14T00:46:37.480Z,-11.96
2022-12-14T00:47:40.674Z,-11.97
2022-12-14T00:48:36.981Z,-11.95
2022-12-14T00:49:42.824Z,-11.99
2022-12-14T00:50:42.841Z,-11.97
2022-12-14T00:51:42.788Z,-11.98
2022-12-14T00:52:47.619Z,-11.99
2022-12-14T00:53:47.664Z,-12.00
2022-12-14T00:54:47.558Z,-12.00
2022-12-14T00:55:49.630Z,-12.01
2022-12-14T00:56:47.733Z,-12.01
2022-12-14T00:57:47.390Z,-11.98
2022-12-14T00:58:47.325Z,-12.00
2022-12-14T00:59:47.272Z,-12.00
2022-12-14T01:00:47.211Z,-12.00
2022-12-14T01:01:48.862Z,-11.99
2022-12-14T01:02:47.113Z,-12.03
2022-12-14T01:03:47.122Z,-12.03
2022-12-14T01:04:46.945Z,-12.05
2022-12-14T01:05:49.354Z,-12.03
2022-12-14T01:06:46.795Z,-12.03
2022-12-14T01:07:48.893Z,-12.03
2022-12-14T01:08:46.687Z,-12.05
2022-12-14T01:09:46.623Z,-12.04
2022-12-14T01:10:46.532Z,-12.09
2022-12-14T01:11:46.485Z,-12.09
2022-12-14T01:12:46.410Z,-12.08
2022-12-14T01:13:49.564Z,-12.11
2022-12-14T01:14:46.297Z,-12.12
2022-12-14T01:15:46.335Z,-12.15
2022-12-14T01:16:46.194Z,-12.14
2022-12-14T01:17:46.156Z,-12.18
2022-12-14T01:18:46.102Z,-12.21
2022-12-14T01:19:46.065Z,-12.21
2022-12-14T01:20:45.973Z,-12.25
2022-12-14T01:21:45.959Z,-12.28
2022-12-14T01:22:45.863Z,-12.29
2022-12-14T01:23:45.828Z,-12.35
2022-12-14T01:24:45.758Z,-12.34
2022-12-14T01:25:45.866Z,-12.38
2022-12-14T01:26:45.655Z,-12.34
2022-12-14T01:27:51.509Z,-12.40
2022-12-14T01:28:56.459Z,-12.42
2022-12-14T01:29:56.484Z,-12.44
2022-12-14T01:30:56.394Z,-12.45
2022-12-14T01:31:56.356Z,-12.44
2022-12-14T01:32:56.285Z,-12.48
2022-12-14T01:33:56.256Z,-12.49
2022-12-14T01:34:56.186Z,-12.51
2022-12-14T01:35:56.140Z,-12.51
2022-12-14T01:36:56.182Z,-12.52
2022-12-14T01:37:56.010Z,-12.55
2022-12-14T01:38:55.920Z,-12.57
2022-12-14T01:39:56.048Z,-12.58
2022-12-14T01:40:55.803Z,-12.62
2022-12-14T01:41:55.769Z,-12.66
2022-12-14T01:42:55.698Z,-12.67
2022-12-14T01:43:55.724Z,-12.70
2022-12-14T01:44:55.600Z,-12.70
2022-12-14T01:45:55.518Z,-12.71
2022-12-14T01:46:55.522Z,-12.74
2022-12-14T01:47:55.433Z,-12.77
2022-12-14T01:48:55.702Z,-12.75
2022-12-14T01:49:55.320Z,-12.79
2022-12-14T01:50:55.539Z,-12.79
2022-12-14T01:51:55.200Z,-12.81
2022-12-14T01:52:55.145Z,-12.79
2022-12-14T01:53:55.107Z,-12.78
2022-12-14T01:54:55.295Z,-12.80
2022-12-14T01:55:54.969Z,-12.79
2022-12-14T01:56:54.887Z,-12.80
2022-12-14T01:57:54.831Z,-12.83
2022-12-14T01:58:54.808Z,-12.84
2022-12-14T01:59:54.715Z,-12.86
2022-12-14T02:00:54.677Z,-12.88
2022-12-14T02:01:59.633Z,-12.91
2022-12-14T02:03:04.467Z,-12.92
2022-12-14T02:04:04.962Z,-12.94
2022-12-14T02:05:04.409Z,-12.93
2022-12-14T02:06:04.392Z,-12.96
2022-12-14T02:07:04.300Z,-12.96
2022-12-14T02:09:09.124Z,-12.97
2022-12-14T02:10:09.138Z,-12.98
2022-12-14T02:11:09.088Z,-12.98
2022-12-14T02:12:09.055Z,-13.00
2022-12-14T02:13:08.934Z,-13.06
2022-12-14T02:14:08.910Z,-13.07
2022-12-14T02:15:08.835Z,-13.09
2022-12-14T02:16:08.836Z,-13.10
2022-12-14T02:17:08.720Z,-13.12
2022-12-14T02:18:08.667Z,-13.12
2022-12-14T02:19:08.602Z,-13.15
2022-12-14T02:20:08.558Z,-13.15
2022-12-14T02:21:08.481Z,-13.19
2022-12-14T02:22:08.446Z,-13.18
2022-12-14T02:23:08.507Z,-13.19
2022-12-14T02:24:08.351Z,-13.19
2022-12-14T02:25:08.268Z,-13.21
2022-12-14T02:26:08.283Z,-13.26
2022-12-14T02:27:08.195Z,-13.24
2022-12-14T02:28:08.149Z,-13.26
2022-12-14T02:29:08.237Z,-13.26
2022-12-14T02:30:08.022Z,-13.26
2022-12-14T02:31:08.070Z,-13.24
2022-12-14T02:32:07.934Z,-13.27
2022-12-14T02:33:07.852Z,-13.26
2022-12-14T02:34:07.829Z,-13.27
2022-12-14T02:35:08.032Z,-13.30
2022-12-14T02:36:07.713Z,-13.31
2022-12-14T02:37:07.639Z,-13.32
2022-12-14T02:38:07.582Z,-13.34
2022-12-14T02:39:07.501Z,-13.36
2022-12-14T02:40:07.486Z,-13.38
2022-12-14T02:41:07.665Z,-13.39
2022-12-14T02:42:07.340Z,-13.39
2022-12-14T02:43:07.255Z,-13.39
2022-12-14T02:44:07.216Z,-13.39
2022-12-14T02:45:07.315Z,-13.41
2022-12-14T02:46:07.090Z,-13.44
2022-12-14T02:47:07.067Z,-13.45
2022-12-14T02:48:06.958Z,-13.45
2022-12-14T02:49:06.880Z,-13.47
2022-12-14T02:50:06.824Z,-13.46
2022-12-14T02:51:06.749Z,-13.48
2022-12-14T02:52:06.697Z,-13.52
2022-12-14T02:53:06.883Z,-13.55
2022-12-14T02:54:06.562Z,-13.55
2022-12-14T02:55:06.487Z,-13.53
2022-12-14T02:56:06.729Z,-13.54
2022-12-14T02:57:06.354Z,-13.58
2022-12-14T02:58:06.287Z,-13.56
2022-12-14T02:59:06.362Z,-13.58
2022-12-14T03:00:06.147Z,-13.56
2022-12-14T03:01:06.141Z,-13.56
2022-12-14T03:02:06.200Z,-13.57
2022-12-14T03:03:06.095Z,-13.60
2022-12-14T03:04:05.889Z,-13.58
2022-12-14T03:05:06.112Z,-13.62
2022-12-14T03:06:05.794Z,-13.61
2022-12-14T03:07:05.831Z,-13.63
2022-12-14T03:08:05.649Z,-13.65
2022-12-14T03:09:05.553Z,-13.65
2022-12-14T03:10:05.515Z,-13.66
2022-12-14T03:11:05.692Z,-13.70
2022-12-14T03:12:05.382Z,-13.67
2022-12-14T03:13:05.287Z,-13.66
2022-12-14T03:14:05.259Z,-13.67
2022-12-14T03:15:05.167Z,-13.70
2022-12-14T03:16:05.237Z,-13.70
2022-12-14T03:17:05.175Z,-13.70
2022-12-14T03:18:05.050Z,-13.72
2022-12-14T03:19:04.933Z,-13.72
2022-12-14T03:20:08.781Z,-13.73
2022-12-14T03:21:08.806Z,-13.72
2022-12-14T03:22:08.855Z,-13.73
2022-12-14T03:23:13.614Z,-13.72
2022-12-14T03:24:13.648Z,-13.75
2022-12-14T03:25:13.530Z,-13.74
2022-12-14T03:26:13.470Z,-13.76
2022-12-14T03:27:13.413Z,-13.75
2022-12-14T03:28:13.354Z,-13.78
2022-12-14T03:29:13.297Z,-13.81
2022-12-14T03:30:13.197Z,-13.81
2022-12-14T03:31:13.159Z,-13.82
2022-12-14T03:32:13.074Z,-13.80
2022-12-14T03:33:13.136Z,-13.82
2022-12-14T03:34:12.935Z,-13.80
2022-12-14T03:35:12.845Z,-13.78
2022-12-14T03:36:17.684Z,-13.80
2022-12-14T03:37:17.737Z,-13.80
2022-12-14T03:38:17.944Z,-13.80
2022-12-14T03:39:23.516Z,-13.82
2022-12-14T03:40:23.543Z,-13.82
2022-12-14T03:41:23.475Z,-13.83
2022-12-14T03:42:23.402Z,-13.84
2022-12-14T03:43:23.327Z,-13.85
2022-12-14T03:44:23.260Z,-13.85
2022-12-14T03:45:23.254Z,-13.86
2022-12-14T03:46:23.118Z,-13.86
2022-12-14T03:47:23.018Z,-13.86
2022-12-14T03:48:22.999Z,-13.87
2022-12-14T03:49:22.892Z,-13.88
2022-12-14T03:50:22.792Z,-13.90
2022-12-14T03:51:22.749Z,-13.92
2022-12-14T03:52:22.684Z,-13.92
2022-12-14T03:53:22.611Z,-13.93
2022-12-14T03:54:22.546Z,-13.95
2022-12-14T03:55:22.499Z,-13.97
2022-12-14T03:56:22.427Z,-13.97
2022-12-14T03:57:22.338Z,-14.00
2022-12-14T03:58:22.307Z,-14.01
2022-12-14T03:59:22.523Z,-14.01
2022-12-14T04:00:22.179Z,-14.02
2022-12-14T04:01:22.538Z,-13.99
2022-12-14T04:02:22.182Z,-14.00
2022-12-14T04:03:22.032Z,-14.02
2022-12-14T04:04:21.910Z,-14.03
2022-12-14T04:05:21.818Z,-14.03
2022-12-14T04:06:27.105Z,-14.06
2022-12-14T04:07:26.699Z,-14.07
2022-12-14T04:08:26.645Z,-14.08
2022-12-14T04:09:32.645Z,-14.08
2022-12-14T04:10:32.504Z,-14.08
2022-12-14T04:11:32.666Z,-14.08
2022-12-14T04:12:37.246Z,-14.07
2022-12-14T04:13:37.306Z,-14.10
2022-12-14T04:14:37.213Z,-14.10
2022-12-14T04:15:42.054Z,-14.11
2022-12-14T04:16:47.355Z,-14.12
2022-12-14T04:17:52.904Z,-14.12
2022-12-14T04:18:59.110Z,-14.15
2022-12-14T04:19:52.992Z,-14.15
2022-12-14T04:20:52.821Z,-14.16
2022-12-14T04:21:53.018Z,-14.18
2022-12-14T04:22:52.667Z,-14.18
2022-12-14T04:23:52.597Z,-14.20
2022-12-14T04:24:52.540Z,-14.20
2022-12-14T04:25:52.433Z,-14.21
2022-12-14T04:26:52.412Z,-14.21
2022-12-14T04:27:52.461Z,-14.26
2022-12-14T04:28:52.249Z,-14.26
2022-12-14T04:29:52.149Z,-14.27
2022-12-14T04:30:52.239Z,-14.28
2022-12-14T04:31:52.053Z,-14.30
2022-12-14T04:32:52.015Z,-14.32
2022-12-14T04:35:45.709Z,-14.33
2022-12-14T04:36:45.695Z,-14.33
2022-12-14T04:37:45.746Z,-14.35
2022-12-14T04:38:45.562Z,-14.37
2022-12-14T04:39:45.464Z,-14.39
2022-12-14T04:40:45.441Z,-14.40
2022-12-14T04:41:45.336Z,-14.42
2022-12-14T04:42:45.274Z,-14.43
2022-12-14T04:43:45.215Z,-14.45
2022-12-14T04:44:45.121Z,-14.45
2022-12-14T04:45:45.083Z,-14.49
2022-12-14T04:46:45.003Z,-14.50
2022-12-14T04:47:44.933Z,-14.54
2022-12-14T04:48:50.786Z,-14.56
2022-12-14T04:49:50.786Z,-14.56
2022-12-14T04:50:50.727Z,-14.57
2022-12-14T04:51:50.693Z,-14.60
2022-12-14T04:52:50.580Z,-14.59
2022-12-14T04:53:54.453Z,-14.62
2022-12-14T04:54:54.454Z,-14.63
2022-12-14T04:55:54.357Z,-14.67
2022-12-14T04:56:54.317Z,-14.70
2022-12-14T04:57:54.238Z,-14.70
2022-12-14T04:58:54.185Z,-14.70
2022-12-14T04:59:54.086Z,-14.71
2022-12-14T05:00:54.092Z,-14.74
2022-12-14T05:01:54.259Z,-14.75
2022-12-14T05:02:53.992Z,-14.74
2022-12-14T05:03:53.843Z,-14.74
2022-12-14T05:04:53.750Z,-14.72
2022-12-14T05:05:53.668Z,-14.74
2022-12-14T05:06:53.611Z,-14.73
2022-12-14T05:07:53.510Z,-14.73
2022-12-14T05:08:53.591Z,-14.74
2022-12-14T05:09:53.365Z,-14.75
2022-12-14T05:10:53.309Z,-14.73
2022-12-14T05:11:54.389Z,-14.73
2022-12-14T05:12:58.077Z,-14.72
2022-12-14T05:14:03.994Z,-14.73
2022-12-14T05:15:04.012Z,-14.74
2022-12-14T05:16:03.934Z,-14.75
2022-12-14T05:17:08.188Z,-14.74
2022-12-14T05:18:03.749Z,-14.75
2022-12-14T05:19:03.684Z,-14.77
2022-12-14T05:20:03.602Z,-14.77
2022-12-14T05:22:09.381Z,-14.80
2022-12-14T05:23:09.683Z,-14.78
2022-12-14T05:24:09.312Z,-14.79
2022-12-14T05:25:09.308Z,-14.80
2022-12-14T05:26:09.186Z,-14.80
2022-12-14T05:27:09.130Z,-14.81
2022-12-14T05:28:09.062Z,-14.80
2022-12-14T05:29:08.997Z,-14.78
2022-12-14T05:30:08.912Z,-14.79
2022-12-14T05:31:14.862Z,-14.80
2022-12-14T05:32:20.691Z,-14.81
2022-12-14T05:33:20.743Z,-14.80
2022-12-14T05:34:20.620Z,-14.81
2022-12-14T05:35:20.551Z,-14.80
2022-12-14T05:36:20.749Z,-14.82
2022-12-14T05:37:20.448Z,-14.84
2022-12-14T05:38:20.322Z,-14.81
2022-12-14T05:39:26.167Z,-14.84
2022-12-14T05:40:26.204Z,-14.81
2022-12-14T05:41:26.131Z,-14.81
2022-12-14T05:42:30.977Z,-14.81
2022-12-14T05:43:36.150Z,-14.81
2022-12-14T05:44:35.937Z,-14.82
2022-12-14T05:45:35.845Z,-14.85
2022-12-14T05:46:39.843Z,-14.86
2022-12-14T05:47:39.730Z,-14.87
2022-12-14T05:48:39.649Z,-14.87
2022-12-14T05:49:39.584Z,-14.90
2022-12-14T05:50:39.489Z,-14.89
2022-12-14T05:51:39.416Z,-14.93
2022-12-14T05:52:39.463Z,-14.96
2022-12-14T05:53:39.299Z,-14.99
2022-12-14T05:54:39.191Z,-14.99
2022-12-14T05:55:39.131Z,-15.02
2022-12-14T05:56:39.051Z,-15.05
2022-12-14T05:57:38.993Z,-15.08
2022-12-14T05:58:38.949Z,-15.11
2022-12-14T05:59:38.847Z,-15.11
2022-12-14T06:00:38.755Z,-15.09
2022-12-14T06:01:38.724Z,-15.16
2022-12-14T06:02:38.685Z,-15.15
2022-12-14T06:03:38.558Z,-15.16
2022-12-14T06:04:38.712Z,-15.16
2022-12-14T06:05:38.422Z,-15.20
2022-12-14T06:06:38.323Z,-15.21
2022-12-14T06:07:38.264Z,-15.21
2022-12-14T06:08:38.212Z,-15.23
2022-12-14T06:09:38.151Z,-15.23
2022-12-14T06:10:38.202Z,-15.24
2022-12-14T06:11:38.031Z,-15.25
2022-12-14T06:12:37.910Z,-15.25
2022-12-14T06:13:37.876Z,-15.24
2022-12-14T06:14:37.783Z,-15.25
2022-12-14T06:15:37.777Z,-15.28
2022-12-14T06:16:37.633Z,-15.31
2022-12-14T06:17:37.552Z,-15.33
2022-12-14T06:19:43.299Z,-15.35
2022-12-14T06:20:43.315Z,-15.35
2022-12-14T06:21:43.291Z,-15.36
2022-12-14T06:22:49.045Z,-15.37
2022-12-14T06:23:49.084Z,-15.38
2022-12-14T06:24:48.995Z,-15.38
2022-12-14T06:25:49.083Z,-15.39
2022-12-14T06:26:48.854Z,-15.45
2022-12-14T06:27:48.787Z,-15.48
2022-12-14T06:28:48.680Z,-15.49
2022-12-14T06:29:48.621Z,-15.48
2022-12-14T06:30:48.592Z,-15.49
2022-12-14T06:31:49.437Z,-15.51
2022-12-14T06:32:48.377Z,-15.52
2022-12-14T06:34:53.107Z,-15.54
2022-12-14T06:35:53.266Z,-15.53
2022-12-14T06:36:53.033Z,-15.58
2022-12-14T06:37:53.246Z,-15.59
2022-12-14T06:38:52.873Z,-15.59
2022-12-14T06:39:54.559Z,-15.58
2022-12-14T06:40:52.748Z,-15.55
2022-12-14T06:41:52.669Z,-15.59
2022-12-14T06:42:52.569Z,-15.61
2022-12-14T06:43:52.645Z,-15.62
2022-12-14T06:44:52.421Z,-15.65
2022-12-14T06:45:52.398Z,-15.64
2022-12-14T06:46:52.311Z,-15.65
2022-12-14T06:47:52.200Z,-15.67
2022-12-14T06:48:52.095Z,-15.67
2022-12-14T06:49:52.165Z,-15.69
2022-12-14T06:50:51.936Z,-15.69
2022-12-14T06:51:51.896Z,-15.69
2022-12-14T06:52:51.784Z,-15.71
2022-12-14T06:53:57.606Z,-15.74
2022-12-14T06:54:57.667Z,-15.74
2022-12-14T06:55:57.693Z,-15.75
2022-12-14T06:57:03.647Z,-15.76
2022-12-14T06:58:03.384Z,-15.76
2022-12-14T06:59:03.295Z,-15.78
2022-12-14T07:00:03.237Z,-15.76
2022-12-14T07:01:03.279Z,-15.76
2022-12-14T07:02:03.244Z,-15.75
2022-12-14T07:03:03.156Z,-15.73
2022-12-14T07:04:02.933Z,-15.75
2022-12-14T07:05:02.837Z,-15.75
2022-12-14T07:06:02.758Z,-15.75
2022-12-14T07:07:02.676Z,-15.75
2022-12-14T07:08:02.637Z,-15.78
2022-12-14T07:09:02.512Z,-15.78
2022-12-14T07:10:02.516Z,-15.78
2022-12-14T07:11:02.782Z,-15.78
2022-12-14T07:12:02.316Z,-15.78
2022-12-14T07:13:02.497Z,-15.79
2022-12-14T07:14:02.173Z,-15.80
2022-12-14T07:15:02.104Z,-15.80
2022-12-14T07:16:02.077Z,-15.80
2022-12-14T07:17:01.912Z,-15.84
2022-12-14T07:18:01.854Z,-15.83
2022-12-14T07:19:02.048Z,-15.88
2022-12-14T07:20:01.720Z,-15.88
2022-12-14T07:21:01.605Z,-15.89
2022-12-14T07:22:01.555Z,-15.92
2022-12-14T07:23:01.467Z,-15.93
2022-12-14T07:24:01.399Z,-15.90
2022-12-14T07:25:01.588Z,-15.91
2022-12-14T07:26:01.264Z,-15.94
2022-12-14T07:27:01.152Z,-15.94
2022-12-14T07:28:01.113Z,-15.93
2022-12-14T07:29:01.015Z,-15.94
2022-12-14T07:30:01.277Z,-15.93
2022-12-14T07:31:01.231Z,-15.94
2022-12-14T07:32:00.803Z,-15.95
2022-12-14T07:33:00.699Z,-15.95
2022-12-14T07:34:06.538Z,-15.97
2022-12-14T07:35:16.231Z,-15.97
2022-12-14T07:36:10.508Z,-15.97
2022-12-14T07:37:10.391Z,-15.98
2022-12-14T07:38:10.329Z,-15.99
2022-12-14T07:39:10.301Z,-15.99
2022-12-14T07:40:10.292Z,-16.00
2022-12-14T07:41:10.062Z,-16.00
2022-12-14T07:43:14.829Z,-16.00
2022-12-14T07:44:14.827Z,-15.99
2022-12-14T07:45:14.732Z,-16.02
2022-12-14T07:46:14.727Z,-16.05
2022-12-14T07:47:16.714Z,-16.03
2022-12-14T07:48:14.519Z,-16.03
2022-12-14T07:49:14.694Z,-16.04
2022-12-14T07:50:14.631Z,-16.05
2022-12-14T07:51:14.268Z,-16.03
2022-12-14T07:52:14.232Z,-16.00
2022-12-14T07:53:14.127Z,-16.02
2022-12-14T07:54:20.082Z,-15.98
2022-12-14T07:55:19.977Z,-15.99
2022-12-14T07:56:19.926Z,-16.00
2022-12-14T07:57:25.723Z,-16.02
2022-12-14T07:58:25.731Z,-16.04
2022-12-14T07:59:25.791Z,-16.05
2022-12-14T08:00:25.622Z,-16.04
2022-12-14T08:01:25.630Z,-16.06
2022-12-14T08:02:25.530Z,-16.00
2022-12-14T08:03:25.347Z,-16.02
2022-12-14T08:04:29.342Z,-16.02
2022-12-14T08:05:29.188Z,-16.03
2022-12-14T08:06:29.082Z,-16.03
2022-12-14T08:07:29.025Z,-16.04
2022-12-14T08:08:28.917Z,-16.04
2022-12-14T08:09:33.798Z,-16.02
2022-12-14T08:10:40.050Z,-16.04
2022-12-14T08:11:33.693Z,-16.03
2022-12-14T08:12:33.640Z,-16.02
2022-12-14T08:13:33.528Z,-16.02
2022-12-14T08:14:38.374Z,-16.02
2022-12-14T08:15:38.392Z,-16.00
2022-12-14T08:17:43.136Z,-15.98
2022-12-14T08:18:43.186Z,-15.98
2022-12-14T08:19:43.210Z,-15.96
2022-12-14T08:20:43.106Z,-15.97
2022-12-14T08:21:42.915Z,-15.96
2022-12-14T08:22:42.872Z,-15.96
2022-12-14T08:23:42.769Z,-15.96
2022-12-14T08:24:49.488Z,-15.94
2022-12-14T08:25:47.682Z,-15.93
2022-12-14T08:26:49.453Z,-15.92
2022-12-14T08:27:53.409Z,-15.90
2022-12-14T08:28:53.416Z,-15.90
2022-12-14T08:29:53.458Z,-15.90
2022-12-14T08:30:59.225Z,-15.92
2022-12-14T08:32:05.046Z,-15.92
2022-12-14T08:33:05.110Z,-15.91
2022-12-14T08:34:05.001Z,-15.92
2022-12-14T08:35:09.966Z,-15.90
2022-12-14T08:36:15.744Z,-15.92
2022-12-14T08:37:15.790Z,-15.92
2022-12-14T08:38:15.692Z,-15.92
2022-12-14T08:39:15.885Z,-15.93
2022-12-14T08:40:15.554Z,-15.92
2022-12-14T08:41:15.668Z,-15.91
2022-12-14T08:42:15.406Z,-15.90
2022-12-14T08:43:18.985Z,-15.88
2022-12-14T08:44:15.250Z,-15.86
2022-12-14T08:45:15.200Z,-15.83
2022-12-14T08:46:15.309Z,-15.81
2022-12-14T08:47:15.494Z,-15.81
2022-12-14T08:48:14.966Z,-15.80
2022-12-14T08:49:14.898Z,-15.78
2022-12-14T08:50:14.797Z,-15.77
2022-12-14T08:51:14.746Z,-15.77
2022-12-14T08:52:14.766Z,-15.74
2022-12-14T08:53:14.643Z,-15.70
2022-12-14T08:54:14.506Z,-15.68
2022-12-14T08:55:22.391Z,-15.67
2022-12-14T08:56:18.345Z,-15.65
2022-12-14T08:57:18.544Z,-15.62
2022-12-14T08:58:18.202Z,-15.60
2022-12-14T08:59:37.085Z,-15.58
2022-12-14T09:02:16.983Z,-15.54
2022-12-14T09:03:16.919Z,-15.48
2022-12-14T09:04:16.761Z,-15.44
2022-12-14T09:05:16.701Z,-15.40
2022-12-14T09:06:16.611Z,-15.40
2022-12-14T09:07:16.582Z,-15.39
2022-12-14T09:08:16.465Z,-15.37
2022-12-14T09:09:16.915Z,-15.38
2022-12-14T09:10:16.298Z,-15.36
2022-12-14T09:11:16.298Z,-15.35
2022-12-14T09:12:16.199Z,-15.32
2022-12-14T09:13:16.189Z,-15.30
2022-12-14T09:14:16.095Z,-15.29
2022-12-14T09:15:16.294Z,-15.29
2022-12-14T09:16:16.026Z,-15.28
2022-12-14T09:17:19.810Z,-15.24
2022-12-14T09:18:19.830Z,-15.23
2022-12-14T09:19:19.733Z,-15.21
2022-12-14T09:20:24.595Z,-15.19
2022-12-14T09:21:24.610Z,-15.17
2022-12-14T09:22:24.680Z,-15.16
2022-12-14T09:24:30.438Z,-15.13
2022-12-14T09:25:30.575Z,-15.13
2022-12-14T09:26:30.221Z,-15.09
2022-12-14T09:27:35.042Z,-15.10
2022-12-14T09:28:35.095Z,-15.08
2022-12-14T09:29:34.989Z,-15.10
2022-12-14T09:30:40.085Z,-15.06
2022-12-14T09:31:39.937Z,-15.10
2022-12-14T09:32:39.794Z,-15.07
2022-12-14T09:33:39.735Z,-15.07
2022-12-14T09:34:39.795Z,-15.03
2022-12-14T09:35:39.602Z,-15.04
2022-12-14T09:36:39.539Z,-15.03
2022-12-14T09:37:45.372Z,-15.00
2022-12-14T09:38:50.506Z,-14.97
2022-12-14T09:39:45.313Z,-14.94
2022-12-14T09:40:45.259Z,-14.93
2022-12-14T09:41:45.497Z,-14.92
2022-12-14T09:42:50.837Z,-14.88
2022-12-14T09:43:50.086Z,-14.86
2022-12-14T09:44:50.292Z,-14.84
2022-12-14T09:45:50.030Z,-14.81
2022-12-14T09:46:50.025Z,-14.79
2022-12-14T09:47:49.830Z,-14.74
2022-12-14T09:48:49.754Z,-14.71
2022-12-14T09:49:49.762Z,-14.65
2022-12-14T09:50:49.775Z,-14.60
2022-12-14T09:51:49.577Z,-14.56
2022-12-14T09:52:49.632Z,-14.54
2022-12-14T09:53:49.472Z,-14.49
2022-12-14T09:54:49.804Z,-14.48
2022-12-14T09:55:49.478Z,-14.45
2022-12-14T09:56:49.246Z,-14.37
2022-12-14T09:57:54.116Z,-14.33
2022-12-14T09:58:54.132Z,-14.29
2022-12-14T09:59:54.072Z,-14.23
2022-12-14T10:00:54.200Z,-14.20
2022-12-14T10:02:29.641Z,-14.17
2022-12-14T10:03:04.540Z,-14.14
2022-12-14T10:03:59.936Z,-14.12
2022-12-14T10:04:59.708Z,-14.10
2022-12-14T10:05:59.804Z,-14.04
2022-12-14T10:06:59.565Z,-14.00
2022-12-14T10:07:59.778Z,-13.98
2022-12-14T10:08:59.436Z,-13.96
2022-12-14T10:09:59.396Z,-13.91
2022-12-14T10:11:03.209Z,-13.88
2022-12-14T10:12:03.231Z,-13.85
2022-12-14T10:13:03.262Z,-13.81
2022-12-14T10:14:03.090Z,-13.80
2022-12-14T10:15:02.990Z,-13.73
2022-12-14T10:16:03.030Z,-13.69
2022-12-14T10:17:02.911Z,-13.65
2022-12-14T10:19:07.364Z,-13.60
2022-12-14T10:20:06.647Z,-13.58
2022-12-14T10:21:06.569Z,-13.59
2022-12-14T10:22:06.531Z,-13.56
2022-12-14T10:23:06.435Z,-13.55
2022-12-14T10:24:06.368Z,-13.54
2022-12-14T10:25:06.328Z,-13.52
2022-12-14T10:26:11.410Z,-13.48
2022-12-14T10:27:17.048Z,-13.45
2022-12-14T10:28:17.090Z,-13.43
2022-12-14T10:29:16.994Z,-13.42
2022-12-14T10:30:16.939Z,-13.42
2022-12-14T10:31:16.862Z,-13.41
2022-12-14T10:32:16.780Z,-13.40
2022-12-14T10:33:20.619Z,-13.39
2022-12-14T10:34:20.693Z,-13.37
2022-12-14T10:35:20.597Z,-13.38
2022-12-14T10:36:24.527Z,-13.38
2022-12-14T10:37:30.314Z,-13.36
2022-12-14T10:38:35.250Z,-13.33
2022-12-14T10:39:35.267Z,-13.31
2022-12-14T10:40:35.618Z,-13.29
2022-12-14T10:41:35.148Z,-13.25
2022-12-14T10:42:35.113Z,-13.23
2022-12-14T10:43:40.890Z,-13.19
2022-12-14T10:44:40.942Z,-13.16
2022-12-14T10:45:42.073Z,-13.14
2022-12-14T10:46:40.879Z,-13.12
2022-12-14T10:47:40.882Z,-13.11
2022-12-14T10:48:40.693Z,-13.08
2022-12-14T10:49:40.610Z,-13.04
2022-12-14T10:50:40.549Z,-13.00
2022-12-14T10:51:40.759Z,-12.97
2022-12-14T10:52:40.422Z,-12.96
2022-12-14T10:53:41.297Z,-12.93
2022-12-14T10:54:40.283Z,-12.94
2022-12-14T10:55:40.238Z,-12.95
2022-12-14T10:56:40.241Z,-12.95
2022-12-14T10:57:40.216Z,-12.95
2022-12-14T10:58:40.038Z,-12.96
2022-12-14T10:59:50.804Z,-12.95
2022-12-14T11:00:45.856Z,-12.94
2022-12-14T11:01:46.112Z,-12.95
2022-12-14T11:02:46.015Z,-12.92
2022-12-14T11:03:45.823Z,-12.88
2022-12-14T11:04:45.650Z,-12.89
2022-12-14T11:05:45.603Z,-12.88
2022-12-14T11:06:45.533Z,-12.86
2022-12-14T11:07:50.661Z,-12.85
2022-12-14T11:08:50.452Z,-12.81
2022-12-14T11:09:50.349Z,-12.78
2022-12-14T11:10:56.206Z,-12.77
2022-12-14T11:11:56.293Z,-12.74
2022-12-14T11:12:56.435Z,-12.74
2022-12-14T11:13:56.117Z,-12.71
2022-12-14T11:14:56.039Z,-12.71
2022-12-14T11:15:56.001Z,-12.69
2022-12-14T11:16:56.087Z,-12.69
2022-12-14T11:18:02.205Z,-12.68
2022-12-14T11:19:01.811Z,-12.66
2022-12-14T11:20:01.763Z,-12.66
2022-12-14T11:21:01.702Z,-12.65
2022-12-14T11:22:01.623Z,-12.64
2022-12-14T11:23:01.583Z,-12.62
2022-12-14T11:24:01.544Z,-12.58
2022-12-14T11:25:01.449Z,-12.55
2022-12-14T11:26:01.399Z,-12.56
2022-12-14T11:27:01.363Z,-12.54
2022-12-14T11:28:01.287Z,-12.53
2022-12-14T11:29:01.549Z,-12.52
2022-12-14T11:30:01.314Z,-12.51
2022-12-14T11:31:01.249Z,-12.50
2022-12-14T11:32:01.045Z,-12.51
2022-12-14T11:33:04.931Z,-12.50
2022-12-14T11:34:09.842Z,-12.51
2022-12-14T11:35:09.879Z,-12.48
2022-12-14T11:36:09.789Z,-12.45
2022-12-14T11:37:09.770Z,-12.45
2022-12-14T11:38:09.666Z,-12.40
2022-12-14T11:39:09.651Z,-12.42
2022-12-14T11:40:09.686Z,-12.39
2022-12-14T11:41:12.026Z,-12.41
2022-12-14T11:42:09.455Z,-12.40
2022-12-14T11:43:09.394Z,-12.40
2022-12-14T11:44:09.422Z,-12.39
2022-12-14T11:45:09.249Z,-12.38
2022-12-14T11:46:09.344Z,-12.38
2022-12-14T11:47:09.147Z,-12.35
2022-12-14T11:48:09.049Z,-12.34
2022-12-14T11:49:09.041Z,-12.34
2022-12-14T11:50:09.064Z,-12.36
2022-12-14T11:51:08.896Z,-12.36
2022-12-14T11:52:08.826Z,-12.34
2022-12-14T11:53:13.653Z,-12.33
2022-12-14T11:54:13.713Z,-12.30
2022-12-14T11:55:13.689Z,-12.30
2022-12-14T11:56:13.590Z,-12.29
2022-12-14T11:57:13.511Z,-12.30
2022-12-14T11:58:13.464Z,-12.27
2022-12-14T11:59:13.391Z,-12.25
2022-12-14T12:00:13.643Z,-12.24
2022-12-14T12:01:13.656Z,-12.25
2022-12-14T12:02:13.278Z,-12.21
2022-12-14T12:03:13.209Z,-12.23
2022-12-14T12:04:13.168Z,-12.23
2022-12-14T12:05:13.056Z,-12.22
2022-12-14T12:06:13.017Z,-12.21
2022-12-14T12:07:12.973Z,-12.19
2022-12-14T12:08:12.898Z,-12.22
2022-12-14T12:09:12.847Z,-12.22
2022-12-14T12:10:12.806Z,-12.20
2022-12-14T12:11:12.849Z,-12.18
2022-12-14T12:12:12.690Z,-12.15
2022-12-14T12:13:12.760Z,-12.15
2022-12-14T12:14:12.607Z,-12.13
2022-12-14T12:15:12.506Z,-12.10
2022-12-14T12:16:12.507Z,-12.08
2022-12-14T12:17:12.381Z,-12.07
2022-12-14T12:18:12.346Z,-12.07
2022-12-14T12:19:12.943Z,-12.04
2022-12-14T12:20:12.239Z,-12.03
2022-12-14T12:21:12.168Z,-12.00
2022-12-14T12:22:12.259Z,-12.04
2022-12-14T12:23:12.045Z,-12.10
2022-12-14T12:24:12.030Z,-12.10
2022-12-14T12:25:28.408Z,-12.06
2022-12-14T12:26:11.936Z,-12.04
2022-12-14T12:27:11.876Z,-12.05
2022-12-14T12:28:11.771Z,-12.03
2022-12-14T12:29:11.683Z,-12.01
2022-12-14T12:30:11.653Z,-12.00
2022-12-14T12:31:11.773Z,-12.01
2022-12-14T12:32:11.523Z,-12.03
2022-12-14T12:33:11.454Z,-12.04
2022-12-14T12:34:11.402Z,-12.04
2022-12-14T12:35:12.624Z,-12.05
2022-12-14T12:36:11.270Z,-12.05
2022-12-14T12:37:27.201Z,-12.01
2022-12-14T12:38:11.134Z,-12.03
2022-12-14T12:39:11.064Z,-12.00
2022-12-14T12:40:11.103Z,-12.01
2022-12-14T12:41:11.040Z,-12.00
2022-12-14T12:42:16.971Z,-12.01
2022-12-14T12:43:17.013Z,-12.04
2022-12-14T12:44:16.775Z,-11.99
2022-12-14T12:45:16.752Z,-11.99
2022-12-14T12:46:16.790Z,-11.98
2022-12-14T12:47:29.889Z,-11.94
2022-12-14T12:48:16.711Z,-11.94